sensor_id;sensor_type;location;lat;lon;timestamp;pressure;altitude;pressure_sealevel;temperature;humidity
74578;BME280;63173;49.086;33.418;2023-06-10T00:01:50;100270.47;;;20.48;52.82
74578;BME280;63173;49.086;33.418;2023-06-10T00:04:16;100272.78;;;20.46;53.33
74578;BME280;63173;49.086;33.418;2023-06-10T00:06:44;100273.16;;;20.44;53.03
74578;BME280;63173;49.086;33.418;2023-06-10T00:09:10;100268.16;;;20.34;54.05
74578;BME280;63173;49.086;33.418;2023-06-10T00:11:40;100272.09;;;20.21;54.74
74578;BME280;63173;49.086;33.418;2023-06-10T00:14:06;100265.25;;;20.03;54.49
74578;BME280;63173;49.086;33.418;2023-06-10T00:16:32;100268.09;;;20.19;54.82
74578;BME280;63173;49.086;33.418;2023-06-10T00:18:59;100261.22;;;20.01;55.47
74578;BME280;63173;49.086;33.418;2023-06-10T00:21:28;100248.22;;;20.13;55.36
74578;BME280;63173;49.086;33.418;2023-06-10T00:23:54;100252.97;;;20.01;54.64
74578;BME280;63173;49.086;33.418;2023-06-10T00:26:23;100247.41;;;20.13;54.98
74578;BME280;63173;49.086;33.418;2023-06-10T00:28:49;100244.50;;;19.94;55.54
74578;BME280;63173;49.086;33.418;2023-06-10T00:31:15;100247.91;;;20.03;55.33
74578;BME280;63173;49.086;33.418;2023-06-10T00:33:40;100245.25;;;20.06;55.53
74578;BME280;63173;49.086;33.418;2023-06-10T00:36:06;100238.50;;;20.04;55.36
74578;BME280;63173;49.086;33.418;2023-06-10T00:38:31;100239.63;;;20.03;55.08
74578;BME280;63173;49.086;33.418;2023-06-10T00:40:57;100231.81;;;20.05;54.66
74578;BME280;63173;49.086;33.418;2023-06-10T00:43:22;100234.41;;;19.86;55.04
74578;BME280;63173;49.086;33.418;2023-06-10T00:45:48;100228.59;;;20.03;54.86
74578;BME280;63173;49.086;33.418;2023-06-10T00:48:14;100238.72;;;19.99;54.83
74578;BME280;63173;49.086;33.418;2023-06-10T00:50:39;100232.66;;;19.93;54.88
74578;BME280;63173;49.086;33.418;2023-06-10T00:53:05;100234.75;;;19.84;55.55
74578;BME280;63173;49.086;33.418;2023-06-10T00:55:32;100230.91;;;19.73;55.18
74578;BME280;63173;49.086;33.418;2023-06-10T00:57:58;100226.41;;;19.68;56.12
74578;BME280;63173;49.086;33.418;2023-06-10T01:00:24;100228.03;;;19.69;56.48
74578;BME280;63173;49.086;33.418;2023-06-10T01:02:50;100229.91;;;19.53;56.74
74578;BME280;63173;49.086;33.418;2023-06-10T01:05:18;100226.94;;;19.58;56.64
74578;BME280;63173;49.086;33.418;2023-06-10T01:07:58;100228.78;;;19.42;57.46
74578;BME280;63173;49.086;33.418;2023-06-10T01:10:33;100228.88;;;19.46;57.37
74578;BME280;63173;49.086;33.418;2023-06-10T01:13:03;100228.34;;;19.28;58.12
74578;BME280;63173;49.086;33.418;2023-06-10T01:15:32;100236.72;;;19.32;58.39
74578;BME280;63173;49.086;33.418;2023-06-10T01:18:03;100238.22;;;19.41;57.37
74578;BME280;63173;49.086;33.418;2023-06-10T01:20:30;100237.63;;;19.24;57.83
74578;BME280;63173;49.086;33.418;2023-06-10T01:22:58;100238.63;;;19.19;58.05
74578;BME280;63173;49.086;33.418;2023-06-10T01:25:26;100235.66;;;19.24;58.71
74578;BME280;63173;49.086;33.418;2023-06-10T01:28:04;100238.31;;;19.21;58.25
74578;BME280;63173;49.086;33.418;2023-06-10T01:30:37;100241.19;;;19.12;58.83
74578;BME280;63173;49.086;33.418;2023-06-10T01:33:07;100242.78;;;19.25;57.81
74578;BME280;63173;49.086;33.418;2023-06-10T01:35:36;100252.88;;;19.21;58.39
74578;BME280;63173;49.086;33.418;2023-06-10T01:38:03;100250.13;;;19.09;59.06
74578;BME280;63173;49.086;33.418;2023-06-10T01:40:29;100249.88;;;19.02;59.21
74578;BME280;63173;49.086;33.418;2023-06-10T01:42:56;100249.41;;;19.00;59.40
74578;BME280;63173;49.086;33.418;2023-06-10T01:45:21;100255.28;;;18.99;59.63
74578;BME280;63173;49.086;33.418;2023-06-10T01:47:47;100246.09;;;18.83;60.14
74578;BME280;63173;49.086;33.418;2023-06-10T01:50:12;100246.56;;;18.97;59.35
74578;BME280;63173;49.086;33.418;2023-06-10T01:52:38;100243.81;;;18.97;60.05
74578;BME280;63173;49.086;33.418;2023-06-10T01:55:04;100246.34;;;18.90;59.42
74578;BME280;63173;49.086;33.418;2023-06-10T01:57:29;100243.03;;;18.96;59.65
74578;BME280;63173;49.086;33.418;2023-06-10T01:59:55;100245.16;;;18.91;60.28
74578;BME280;63173;49.086;33.418;2023-06-10T02:02:20;100243.47;;;18.86;59.60
74578;BME280;63173;49.086;33.418;2023-06-10T02:04:47;100239.78;;;18.82;60.34
74578;BME280;63173;49.086;33.418;2023-06-10T02:07:12;100253.31;;;18.75;60.57
74578;BME280;63173;49.086;33.418;2023-06-10T02:09:38;100234.97;;;18.79;60.56
74578;BME280;63173;49.086;33.418;2023-06-10T02:12:04;100243.31;;;18.70;60.47
74578;BME280;63173;49.086;33.418;2023-06-10T02:14:31;100256.53;;;18.77;60.38
74578;BME280;63173;49.086;33.418;2023-06-10T02:16:57;100262.69;;;18.74;60.05
74578;BME280;63173;49.086;33.418;2023-06-10T02:19:23;100262.22;;;18.60;60.21
74578;BME280;63173;49.086;33.418;2023-06-10T02:21:48;100246.44;;;18.81;60.50
74578;BME280;63173;49.086;33.418;2023-06-10T02:24:14;100249.75;;;18.74;61.15
74578;BME280;63173;49.086;33.418;2023-06-10T02:26:40;100247.72;;;18.96;59.22
74578;BME280;63173;49.086;33.418;2023-06-10T02:29:06;100251.03;;;19.01;59.58
74578;BME280;63173;49.086;33.418;2023-06-10T02:31:31;100255.50;;;19.18;58.86
74578;BME280;63173;49.086;33.418;2023-06-10T02:33:56;100247.13;;;19.14;58.71
74578;BME280;63173;49.086;33.418;2023-06-10T02:36:22;100248.06;;;19.18;59.10
74578;BME280;63173;49.086;33.418;2023-06-10T02:38:49;100246.91;;;19.07;58.94
74578;BME280;63173;49.086;33.418;2023-06-10T02:41:14;100248.06;;;19.06;59.34
74578;BME280;63173;49.086;33.418;2023-06-10T02:43:40;100250.13;;;19.21;58.88
74578;BME280;63173;49.086;33.418;2023-06-10T02:46:06;100253.78;;;19.25;58.39
74578;BME280;63173;49.086;33.418;2023-06-10T02:48:31;100253.94;;;19.41;57.68
74578;BME280;63173;49.086;33.418;2023-06-10T02:50:56;100258.06;;;19.35;57.95
74578;BME280;63173;49.086;33.418;2023-06-10T02:53:22;100259.31;;;19.37;57.63
74578;BME280;63173;49.086;33.418;2023-06-10T02:55:47;100257.09;;;19.31;58.39
74578;BME280;63173;49.086;33.418;2023-06-10T02:58:13;100255.75;;;19.49;57.92
74578;BME280;63173;49.086;33.418;2023-06-10T03:00:38;100255.41;;;19.38;57.83
74578;BME280;63173;49.086;33.418;2023-06-10T03:03:06;100257.72;;;19.36;58.48
74578;BME280;63173;49.086;33.418;2023-06-10T03:05:32;100256.22;;;19.39;58.21
74578;BME280;63173;49.086;33.418;2023-06-10T03:07:58;100254.25;;;19.27;58.90
74578;BME280;63173;49.086;33.418;2023-06-10T03:10:24;100254.34;;;19.31;58.49
74578;BME280;63173;49.086;33.418;2023-06-10T03:12:49;100265.63;;;19.26;58.90
74578;BME280;63173;49.086;33.418;2023-06-10T03:15:15;100255.50;;;19.42;58.66
74578;BME280;63173;49.086;33.418;2023-06-10T03:17:41;100254.13;;;19.60;57.69
74578;BME280;63173;49.086;33.418;2023-06-10T03:20:07;100252.19;;;19.60;57.45
74578;BME280;63173;49.086;33.418;2023-06-10T03:22:35;100246.41;;;19.65;57.49
74578;BME280;63173;49.086;33.418;2023-06-10T03:25:01;100252.19;;;19.60;57.51
74578;BME280;63173;49.086;33.418;2023-06-10T03:27:27;100253.47;;;19.39;58.57
74578;BME280;63173;49.086;33.418;2023-06-10T03:29:52;100251.47;;;19.63;57.24
74578;BME280;63173;49.086;33.418;2023-06-10T03:32:18;100252.28;;;19.52;57.63
74578;BME280;63173;49.086;33.418;2023-06-10T03:34:43;100253.13;;;19.40;58.25
74578;BME280;63173;49.086;33.418;2023-06-10T03:37:10;100248.16;;;19.58;58.00
74578;BME280;63173;49.086;33.418;2023-06-10T03:39:35;100251.13;;;19.65;57.93
74578;BME280;63173;49.086;33.418;2023-06-10T03:42:01;100252.84;;;19.69;57.78
74578;BME280;63173;49.086;33.418;2023-06-10T03:44:27;100247.78;;;19.72;58.40
74578;BME280;63173;49.086;33.418;2023-06-10T03:46:53;100239.53;;;19.59;58.08
74578;BME280;63173;49.086;33.418;2023-06-10T03:49:19;100254.88;;;19.73;57.73
74578;BME280;63173;49.086;33.418;2023-06-10T03:51:44;100257.06;;;19.79;58.10
74578;BME280;63173;49.086;33.418;2023-06-10T03:54:10;100249.88;;;19.62;57.98
74578;BME280;63173;49.086;33.418;2023-06-10T03:56:36;100250.38;;;19.92;57.93
74578;BME280;63173;49.086;33.418;2023-06-10T03:59:01;100246.28;;;19.74;58.12
74578;BME280;63173;49.086;33.418;2023-06-10T04:01:26;100244.97;;;19.84;58.49
74578;BME280;63173;49.086;33.418;2023-06-10T04:03:52;100246.53;;;19.97;57.94
74578;BME280;63173;49.086;33.418;2023-06-10T04:06:19;100252.19;;;20.28;57.45
74578;BME280;63173;49.086;33.418;2023-06-10T04:08:45;100254.28;;;20.46;57.52
74578;BME280;63173;49.086;33.418;2023-06-10T04:11:10;100252.28;;;20.31;57.46
74578;BME280;63173;49.086;33.418;2023-06-10T04:13:36;100252.66;;;20.30;57.90
74578;BME280;63173;49.086;33.418;2023-06-10T04:16:02;100255.44;;;20.61;56.91
74578;BME280;63173;49.086;33.418;2023-06-10T04:18:28;100252.66;;;20.30;58.00
74578;BME280;63173;49.086;33.418;2023-06-10T04:20:53;100254.84;;;20.68;57.61
74578;BME280;63173;49.086;33.418;2023-06-10T04:23:19;100261.28;;;20.72;57.64
74578;BME280;63173;49.086;33.418;2023-06-10T04:25:44;100265.09;;;20.83;56.73
74578;BME280;63173;49.086;33.418;2023-06-10T04:28:11;100263.88;;;21.11;55.48
74578;BME280;63173;49.086;33.418;2023-06-10T04:30:36;100264.59;;;21.08;56.81
74578;BME280;63173;49.086;33.418;2023-06-10T04:33:02;100249.50;;;20.90;57.61
74578;BME280;63173;49.086;33.418;2023-06-10T04:35:27;100248.47;;;21.10;56.30
74578;BME280;63173;49.086;33.418;2023-06-10T04:37:53;100253.88;;;21.38;56.07
74578;BME280;63173;49.086;33.418;2023-06-10T04:40:19;100259.47;;;21.41;56.87
74578;BME280;63173;49.086;33.418;2023-06-10T04:42:44;100264.28;;;21.44;56.44
74578;BME280;63173;49.086;33.418;2023-06-10T04:45:10;100257.94;;;21.79;54.60
74578;BME280;63173;49.086;33.418;2023-06-10T04:47:35;100261.97;;;21.81;54.87
74578;BME280;63173;49.086;33.418;2023-06-10T04:50:01;100270.38;;;21.69;54.54
74578;BME280;63173;49.086;33.418;2023-06-10T04:52:27;100271.81;;;21.98;53.81
74578;BME280;63173;49.086;33.418;2023-06-10T04:54:53;100264.69;;;21.97;54.34
74578;BME280;63173;49.086;33.418;2023-06-10T04:57:19;100265.03;;;22.14;53.08
74578;BME280;63173;49.086;33.418;2023-06-10T04:59:46;100272.81;;;22.47;51.94
74578;BME280;63173;49.086;33.418;2023-06-10T05:02:11;100270.63;;;22.56;51.89
74578;BME280;63173;49.086;33.418;2023-06-10T05:04:36;100271.34;;;22.72;50.76
74578;BME280;63173;49.086;33.418;2023-06-10T05:07:02;100270.22;;;22.77;50.55
74578;BME280;63173;49.086;33.418;2023-06-10T05:09:27;100272.50;;;22.71;49.84
74578;BME280;63173;49.086;33.418;2023-06-10T05:11:53;100268.41;;;22.84;50.17
74578;BME280;63173;49.086;33.418;2023-06-10T05:14:19;100268.88;;;22.67;50.22
74578;BME280;63173;49.086;33.418;2023-06-10T05:16:46;100268.31;;;22.58;50.04
74578;BME280;63173;49.086;33.418;2023-06-10T05:19:11;100264.81;;;23.06;49.48
74578;BME280;63173;49.086;33.418;2023-06-10T05:21:37;100273.81;;;23.26;48.99
74578;BME280;63173;49.086;33.418;2023-06-10T05:24:02;100265.53;;;22.81;49.54
74578;BME280;63173;49.086;33.418;2023-06-10T05:26:28;100264.63;;;22.96;49.55
74578;BME280;63173;49.086;33.418;2023-06-10T05:28:54;100266.59;;;23.18;49.29
74578;BME280;63173;49.086;33.418;2023-06-10T05:31:19;100275.94;;;23.32;48.27
74578;BME280;63173;49.086;33.418;2023-06-10T05:33:45;100270.50;;;23.40;48.40
74578;BME280;63173;49.086;33.418;2023-06-10T05:36:10;100265.78;;;23.40;47.87
74578;BME280;63173;49.086;33.418;2023-06-10T05:38:36;100264.31;;;23.76;47.47
74578;BME280;63173;49.086;33.418;2023-06-10T05:41:01;100265.38;;;23.94;46.50
74578;BME280;63173;49.086;33.418;2023-06-10T05:43:26;100265.91;;;24.03;45.60
74578;BME280;63173;49.086;33.418;2023-06-10T05:45:52;100258.34;;;24.33;44.95
74578;BME280;63173;49.086;33.418;2023-06-10T05:48:17;100255.16;;;24.35;46.03
74578;BME280;63173;49.086;33.418;2023-06-10T05:50:45;100261.63;;;24.46;45.16
74578;BME280;63173;49.086;33.418;2023-06-10T05:53:16;100258.63;;;24.61;44.23
74578;BME280;63173;49.086;33.418;2023-06-10T05:55:45;100258.94;;;24.53;44.33
74578;BME280;63173;49.086;33.418;2023-06-10T05:58:11;100257.69;;;24.83;43.98
74578;BME280;63173;49.086;33.418;2023-06-10T06:00:40;100261.34;;;24.94;43.98
74578;BME280;63173;49.086;33.418;2023-06-10T06:03:07;100263.84;;;24.70;44.38
74578;BME280;63173;49.086;33.418;2023-06-10T06:05:33;100262.13;;;24.91;43.35
74578;BME280;63173;49.086;33.418;2023-06-10T06:08:04;100262.41;;;25.27;43.12
74578;BME280;63173;49.086;33.418;2023-06-10T06:10:29;100251.81;;;25.39;42.83
74578;BME280;63173;49.086;33.418;2023-06-10T06:12:55;100259.28;;;25.32;42.07
74578;BME280;63173;49.086;33.418;2023-06-10T06:15:20;100260.97;;;25.40;41.79
74578;BME280;63173;49.086;33.418;2023-06-10T06:17:46;100258.59;;;25.42;41.68
74578;BME280;63173;49.086;33.418;2023-06-10T06:20:12;100261.38;;;25.42;41.69
74578;BME280;63173;49.086;33.418;2023-06-10T06:22:37;100253.94;;;25.60;40.98
74578;BME280;63173;49.086;33.418;2023-06-10T06:25:03;100254.38;;;25.69;40.26
74578;BME280;63173;49.086;33.418;2023-06-10T06:27:28;100256.53;;;25.96;39.73
74578;BME280;63173;49.086;33.418;2023-06-10T06:29:53;100253.81;;;26.11;39.58
74578;BME280;63173;49.086;33.418;2023-06-10T06:32:19;100255.63;;;25.75;39.38
74578;BME280;63173;49.086;33.418;2023-06-10T06:34:45;100253.28;;;25.87;41.14
74578;BME280;63173;49.086;33.418;2023-06-10T06:37:11;100247.00;;;26.04;40.56
74578;BME280;63173;49.086;33.418;2023-06-10T06:39:36;100250.69;;;26.19;40.28
74578;BME280;63173;49.086;33.418;2023-06-10T06:42:02;100245.19;;;26.47;39.46
74578;BME280;63173;49.086;33.418;2023-06-10T06:44:27;100247.94;;;26.33;39.48
74578;BME280;63173;49.086;33.418;2023-06-10T06:46:53;100240.09;;;26.88;38.52
74578;BME280;63173;49.086;33.418;2023-06-10T06:49:18;100247.19;;;26.54;37.87
74578;BME280;63173;49.086;33.418;2023-06-10T06:51:44;100236.44;;;26.45;37.67
74578;BME280;63173;49.086;33.418;2023-06-10T06:54:09;100244.03;;;26.66;38.13
74578;BME280;63173;49.086;33.418;2023-06-10T06:56:35;100239.63;;;26.61;37.21
74578;BME280;63173;49.086;33.418;2023-06-10T06:59:00;100239.66;;;26.68;37.72
74578;BME280;63173;49.086;33.418;2023-06-10T07:01:25;100238.09;;;27.24;37.52
74578;BME280;63173;49.086;33.418;2023-06-10T07:03:51;100231.72;;;26.88;37.88
74578;BME280;63173;49.086;33.418;2023-06-10T07:06:16;100232.53;;;27.06;36.54
74578;BME280;63173;49.086;33.418;2023-06-10T07:08:42;100227.31;;;27.54;36.81
74578;BME280;63173;49.086;33.418;2023-06-10T07:11:07;100229.22;;;27.99;35.93
74578;BME280;63173;49.086;33.418;2023-06-10T07:13:32;100220.94;;;27.57;35.18
74578;BME280;63173;49.086;33.418;2023-06-10T07:15:58;100233.72;;;27.44;36.45
74578;BME280;63173;49.086;33.418;2023-06-10T07:18:24;100224.09;;;27.66;36.13
74578;BME280;63173;49.086;33.418;2023-06-10T07:20:49;100212.13;;;27.72;35.91
74578;BME280;63173;49.086;33.418;2023-06-10T07:23:15;100226.53;;;27.53;35.85
74578;BME280;63173;49.086;33.418;2023-06-10T07:25:41;100222.41;;;27.93;35.86
74578;BME280;63173;49.086;33.418;2023-06-10T07:28:07;100224.44;;;27.78;35.93
74578;BME280;63173;49.086;33.418;2023-06-10T07:30:32;100221.94;;;28.16;34.98
74578;BME280;63173;49.086;33.418;2023-06-10T07:32:57;100215.91;;;28.21;34.54
74578;BME280;63173;49.086;33.418;2023-06-10T07:35:23;100208.50;;;27.75;34.89
74578;BME280;63173;49.086;33.418;2023-06-10T07:37:48;100215.94;;;28.17;34.85
74578;BME280;63173;49.086;33.418;2023-06-10T07:40:14;100209.69;;;27.81;35.70
74578;BME280;63173;49.086;33.418;2023-06-10T07:42:39;100201.03;;;28.41;34.81
74578;BME280;63173;49.086;33.418;2023-06-10T07:45:05;100213.66;;;27.80;35.83
74578;BME280;63173;49.086;33.418;2023-06-10T07:47:33;100212.06;;;27.86;35.61
74578;BME280;63173;49.086;33.418;2023-06-10T07:49:58;100207.31;;;27.76;35.92
74578;BME280;63173;49.086;33.418;2023-06-10T07:52:24;100208.91;;;27.77;35.33
74578;BME280;63173;49.086;33.418;2023-06-10T07:54:49;100205.47;;;28.39;34.79
74578;BME280;63173;49.086;33.418;2023-06-10T07:57:15;100202.84;;;28.04;34.93
74578;BME280;63173;49.086;33.418;2023-06-10T07:59:41;100201.50;;;28.33;34.88
74578;BME280;63173;49.086;33.418;2023-06-10T08:02:06;100192.81;;;28.78;34.10
74578;BME280;63173;49.086;33.418;2023-06-10T08:04:32;100199.03;;;28.42;34.27
74578;BME280;63173;49.086;33.418;2023-06-10T08:06:57;100191.94;;;28.85;33.83
74578;BME280;63173;49.086;33.418;2023-06-10T08:09:23;100199.81;;;28.46;33.90
74578;BME280;63173;49.086;33.418;2023-06-10T08:11:48;100194.22;;;28.46;33.90
74578;BME280;63173;49.086;33.418;2023-06-10T08:14:15;100198.06;;;28.69;33.86
74578;BME280;63173;49.086;33.418;2023-06-10T08:16:41;100196.97;;;28.53;33.65
74578;BME280;63173;49.086;33.418;2023-06-10T08:19:06;100185.72;;;29.11;31.36
74578;BME280;63173;49.086;33.418;2023-06-10T08:21:34;100189.41;;;29.45;32.09
74578;BME280;63173;49.086;33.418;2023-06-10T08:23:59;100188.50;;;29.11;30.77
74578;BME280;63173;49.086;33.418;2023-06-10T08:26:25;100193.22;;;28.12;32.27
74578;BME280;63173;49.086;33.418;2023-06-10T08:28:50;100184.97;;;28.52;31.75
74578;BME280;63173;49.086;33.418;2023-06-10T08:31:16;100181.97;;;28.29;32.56
74578;BME280;63173;49.086;33.418;2023-06-10T08:33:42;100181.66;;;28.10;32.67
74578;BME280;63173;49.086;33.418;2023-06-10T08:36:07;100188.31;;;28.37;32.67
74578;BME280;63173;49.086;33.418;2023-06-10T08:38:33;100184.94;;;29.07;31.74
74578;BME280;63173;49.086;33.418;2023-06-10T08:41:00;100182.16;;;28.63;31.42
74578;BME280;63173;49.086;33.418;2023-06-10T08:43:39;100181.84;;;28.54;31.40
74578;BME280;63173;49.086;33.418;2023-06-10T08:46:09;100181.72;;;29.53;30.07
74578;BME280;63173;49.086;33.418;2023-06-10T08:48:40;100182.25;;;29.78;29.61
74578;BME280;63173;49.086;33.418;2023-06-10T08:51:09;100179.28;;;29.92;29.07
74578;BME280;63173;49.086;33.418;2023-06-10T08:53:37;100169.13;;;29.68;29.73
74578;BME280;63173;49.086;33.418;2023-06-10T08:56:04;100168.53;;;28.68;31.19
74578;BME280;63173;49.086;33.418;2023-06-10T08:58:32;100179.28;;;28.70;31.18
74578;BME280;63173;49.086;33.418;2023-06-10T09:00:58;100169.75;;;29.86;31.02
74578;BME280;63173;49.086;33.418;2023-06-10T09:03:25;100185.50;;;29.36;31.24
74578;BME280;63173;49.086;33.418;2023-06-10T09:05:51;100175.00;;;29.06;31.13
74578;BME280;63173;49.086;33.418;2023-06-10T09:08:16;100168.97;;;29.08;31.42
74578;BME280;63173;49.086;33.418;2023-06-10T09:10:42;100169.69;;;29.19;30.35
74578;BME280;63173;49.086;33.418;2023-06-10T09:13:07;100158.31;;;28.44;30.44
74578;BME280;63173;49.086;33.418;2023-06-10T09:15:33;100163.53;;;28.94;30.85
74578;BME280;63173;49.086;33.418;2023-06-10T09:17:59;100165.94;;;29.32;29.09
74578;BME280;63173;49.086;33.418;2023-06-10T09:20:25;100160.63;;;28.56;30.47
74578;BME280;63173;49.086;33.418;2023-06-10T09:22:51;100168.00;;;28.84;30.18
74578;BME280;63173;49.086;33.418;2023-06-10T09:25:16;100163.16;;;28.92;30.28
74578;BME280;63173;49.086;33.418;2023-06-10T09:30:24;100155.53;;;29.36;30.44
74578;BME280;63173;49.086;33.418;2023-06-10T09:32:53;100150.03;;;30.50;28.08
74578;BME280;63173;49.086;33.418;2023-06-10T09:35:18;100148.69;;;30.35;29.17
74578;BME280;63173;49.086;33.418;2023-06-10T09:37:44;100153.06;;;30.36;28.15
74578;BME280;63173;49.086;33.418;2023-06-10T09:40:09;100136.56;;;30.11;28.48
74578;BME280;63173;49.086;33.418;2023-06-10T09:42:37;100144.53;;;30.70;27.54
74578;BME280;63173;49.086;33.418;2023-06-10T09:45:04;100141.09;;;30.82;27.24
74578;BME280;63173;49.086;33.418;2023-06-10T09:47:30;100133.78;;;29.81;28.14
74578;BME280;63173;49.086;33.418;2023-06-10T09:49:55;100121.06;;;30.83;26.92
74578;BME280;63173;49.086;33.418;2023-06-10T09:52:22;100125.22;;;31.18;26.15
74578;BME280;63173;49.086;33.418;2023-06-10T09:54:48;100120.56;;;31.70;25.60
74578;BME280;63173;49.086;33.418;2023-06-10T09:57:13;100118.28;;;31.65;25.90
74578;BME280;63173;49.086;33.418;2023-06-10T09:59:41;100124.38;;;30.51;26.69
74578;BME280;63173;49.086;33.418;2023-06-10T10:02:13;100126.50;;;30.44;26.33
74578;BME280;63173;49.086;33.418;2023-06-10T10:04:39;100118.25;;;30.60;26.46
74578;BME280;63173;49.086;33.418;2023-06-10T10:07:04;100116.47;;;30.70;26.50
74578;BME280;63173;49.086;33.418;2023-06-10T10:09:32;100117.81;;;30.62;26.54
74578;BME280;63173;49.086;33.418;2023-06-10T10:11:57;100115.34;;;31.10;26.80
74578;BME280;63173;49.086;33.418;2023-06-10T10:14:28;100120.34;;;30.76;27.31
74578;BME280;63173;49.086;33.418;2023-06-10T10:16:55;100114.16;;;30.65;26.78
74578;BME280;63173;49.086;33.418;2023-06-10T10:19:27;100114.94;;;30.42;26.28
74578;BME280;63173;49.086;33.418;2023-06-10T10:21:56;100112.75;;;31.42;26.00
74578;BME280;63173;49.086;33.418;2023-06-10T10:24:33;100112.91;;;31.12;26.35
74578;BME280;63173;49.086;33.418;2023-06-10T10:27:01;100107.81;;;31.07;25.32
74578;BME280;63173;49.086;33.418;2023-06-10T10:29:35;100114.28;;;30.81;25.24
74578;BME280;63173;49.086;33.418;2023-06-10T10:32:03;100102.84;;;32.28;24.25
74578;BME280;63173;49.086;33.418;2023-06-10T10:34:50;100100.72;;;32.16;24.55
74578;BME280;63173;49.086;33.418;2023-06-10T10:37:19;100104.50;;;30.92;26.25
74578;BME280;63173;49.086;33.418;2023-06-10T10:39:45;100099.50;;;31.42;25.24
74578;BME280;63173;49.086;33.418;2023-06-10T10:42:11;100097.94;;;31.41;25.46
74578;BME280;63173;49.086;33.418;2023-06-10T10:44:38;100095.81;;;31.45;25.22
74578;BME280;63173;49.086;33.418;2023-06-10T10:47:08;100094.47;;;33.34;23.90
74578;BME280;63173;49.086;33.418;2023-06-10T10:49:35;100092.28;;;34.08;22.32
74578;BME280;63173;49.086;33.418;2023-06-10T10:52:02;100087.78;;;32.03;23.87
74578;BME280;63173;49.086;33.418;2023-06-10T10:54:35;100086.56;;;31.48;24.92
74578;BME280;63173;49.086;33.418;2023-06-10T10:59:54;100085.31;;;33.01;23.08
74578;BME280;63173;49.086;33.418;2023-06-10T11:05:04;100076.81;;;32.08;24.60
74578;BME280;63173;49.086;33.418;2023-06-10T11:07:31;100082.72;;;32.46;24.06
74578;BME280;63173;49.086;33.418;2023-06-10T11:10:05;100074.19;;;32.82;23.47
74578;BME280;63173;49.086;33.418;2023-06-10T11:15:11;100080.69;;;31.59;23.82
74578;BME280;63173;49.086;33.418;2023-06-10T11:17:37;100083.94;;;31.77;24.05
74578;BME280;63173;49.086;33.418;2023-06-10T11:20:03;100072.84;;;33.02;23.60
74578;BME280;63173;49.086;33.418;2023-06-10T11:22:28;100074.19;;;33.39;22.67
74578;BME280;63173;49.086;33.418;2023-06-10T11:24:54;100075.81;;;31.63;23.61
74578;BME280;63173;49.086;33.418;2023-06-10T11:27:21;100074.91;;;32.54;23.58
74578;BME280;63173;49.086;33.418;2023-06-10T11:32:33;100056.47;;;31.85;23.89
74578;BME280;63173;49.086;33.418;2023-06-10T11:35:00;100064.00;;;31.32;24.43
74578;BME280;63173;49.086;33.418;2023-06-10T11:37:28;100068.31;;;31.17;24.61
74578;BME280;63173;49.086;33.418;2023-06-10T11:39:56;100069.41;;;30.81;25.87
74578;BME280;63173;49.086;33.418;2023-06-10T11:42:22;100064.88;;;31.29;24.85
74578;BME280;63173;49.086;33.418;2023-06-10T11:44:52;100068.63;;;31.62;25.33
74578;BME280;63173;49.086;33.418;2023-06-10T11:47:19;100061.66;;;31.86;24.92
74578;BME280;63173;49.086;33.418;2023-06-10T11:49:45;100052.94;;;31.81;24.75
74578;BME280;63173;49.086;33.418;2023-06-10T11:52:11;100050.69;;;31.56;24.13
74578;BME280;63173;49.086;33.418;2023-06-10T11:54:38;100053.34;;;32.79;23.45
74578;BME280;63173;49.086;33.418;2023-06-10T11:57:03;100047.19;;;34.08;21.90
74578;BME280;63173;49.086;33.418;2023-06-10T11:59:29;100044.66;;;34.35;21.46
74578;BME280;63173;49.086;33.418;2023-06-10T12:13:01;100029.78;;;33.72;23.15
74578;BME280;63173;49.086;33.418;2023-06-10T12:15:27;100025.78;;;33.03;23.45
74578;BME280;63173;49.086;33.418;2023-06-10T12:17:54;100026.19;;;33.59;22.70
74578;BME280;63173;49.086;33.418;2023-06-10T12:20:30;100018.19;;;33.70;22.54
74578;BME280;63173;49.086;33.418;2023-06-10T12:22:57;100019.41;;;32.86;23.71
74578;BME280;63173;49.086;33.418;2023-06-10T12:25:28;100016.00;;;33.49;22.94
74578;BME280;63173;49.086;33.418;2023-06-10T12:27:55;100008.72;;;33.10;22.96
74578;BME280;63173;49.086;33.418;2023-06-10T12:30:26;100010.91;;;32.74;23.63
74578;BME280;63173;49.086;33.418;2023-06-10T12:32:52;100007.97;;;31.65;24.60
74578;BME280;63173;49.086;33.418;2023-06-10T12:35:19;100021.44;;;31.37;25.18
74578;BME280;63173;49.086;33.418;2023-06-10T12:38:03;100014.00;;;31.08;25.64
74578;BME280;63173;49.086;33.418;2023-06-10T12:40:33;100008.50;;;32.11;24.59
74578;BME280;63173;49.086;33.418;2023-06-10T12:43:00;100005.41;;;32.38;23.80
74578;BME280;63173;49.086;33.418;2023-06-10T12:45:32;100010.28;;;33.77;22.13
74578;BME280;63173;49.086;33.418;2023-06-10T12:50:39;99988.94;;;35.60;20.38
74578;BME280;63173;49.086;33.418;2023-06-10T12:53:05;99997.94;;;34.59;21.77
74578;BME280;63173;49.086;33.418;2023-06-10T12:55:31;99989.00;;;33.10;23.40
74578;BME280;63173;49.086;33.418;2023-06-10T12:57:57;100001.63;;;33.59;23.39
74578;BME280;63173;49.086;33.418;2023-06-10T13:00:23;99990.66;;;32.79;23.99
74578;BME280;63173;49.086;33.418;2023-06-10T13:02:51;99986.03;;;33.42;23.16
74578;BME280;63173;49.086;33.418;2023-06-10T13:05:17;99994.13;;;32.70;23.61